createdAt,value
2019-03-26T00:03:18.788Z,19.71
2019-03-26T00:08:18.996Z,19.65
2019-03-26T00:13:20.240Z,19.68
2019-03-26T00:18:20.433Z,19.59
2019-03-26T00:23:21.654Z,19.65
2019-03-26T00:28:21.739Z,19.63
2019-03-26T00:33:35.350Z,19.62
2019-03-26T00:38:28.170Z,19.48
2019-03-26T00:43:29.296Z,19.41
2019-03-26T00:48:29.399Z,19.40
2019-03-26T00:53:30.482Z,19.41
2019-03-26T00:58:30.642Z,19.33
2019-03-26T01:03:31.678Z,19.37
2019-03-26T01:08:31.779Z,19.36
2019-03-26T01:13:33.037Z,19.40
2019-03-26T01:18:33.029Z,19.28
2019-03-26T01:23:34.272Z,19.32
2019-03-26T01:28:34.340Z,19.22
2019-03-26T01:33:35.435Z,19.23
2019-03-26T01:38:35.505Z,19.21
2019-03-26T01:43:36.628Z,19.18
2019-03-26T01:48:36.701Z,19.14
2019-03-26T01:53:37.916Z,19.13
2019-03-26T01:58:38.068Z,19.11
2019-03-26T02:03:39.280Z,19.13
2019-03-26T02:08:39.314Z,19.02
2019-03-26T02:13:40.475Z,19.06
2019-03-26T02:18:40.606Z,19.06
2019-03-26T02:23:41.756Z,19.08
2019-03-26T02:28:41.862Z,19.00
2019-03-26T02:33:42.996Z,18.92
2019-03-26T02:38:43.226Z,19.04
2019-03-26T02:43:44.367Z,18.94
2019-03-26T02:48:44.476Z,18.95
2019-03-26T02:53:45.577Z,18.92
2019-03-26T02:58:45.755Z,18.91
2019-03-26T03:03:46.779Z,18.81
2019-03-26T03:08:46.944Z,18.85
2019-03-26T03:13:48.062Z,18.88
2019-03-26T03:18:48.197Z,18.78
2019-03-26T03:23:48.669Z,18.78
2019-03-26T03:28:48.803Z,18.78
2019-03-26T03:33:49.915Z,18.82
2019-03-26T03:38:50.026Z,18.73
2019-03-26T03:43:51.206Z,18.75
2019-03-26T03:48:51.358Z,18.75
2019-03-26T03:53:52.548Z,18.69
2019-03-26T03:58:52.739Z,18.65
2019-03-26T04:04:44.635Z,18.60
2019-03-26T04:09:44.473Z,18.63
2019-03-26T04:14:45.722Z,18.60
2019-03-26T04:19:45.812Z,18.58
2019-03-26T04:24:46.892Z,18.63
2019-03-26T04:29:47.152Z,18.58
2019-03-26T04:34:48.282Z,18.58
2019-03-26T04:39:48.415Z,18.51
2019-03-26T04:44:49.416Z,18.55
2019-03-26T04:49:49.583Z,18.48
2019-03-26T04:54:50.696Z,18.48
2019-03-26T04:59:50.805Z,18.45
2019-03-26T05:04:51.870Z,18.55
2019-03-26T05:09:51.961Z,18.48
2019-03-26T05:14:53.416Z,18.48
2019-03-26T05:19:53.839Z,18.45
2019-03-26T05:24:55.416Z,18.37
2019-03-26T05:29:55.702Z,18.33
2019-03-26T05:34:59.274Z,18.35
2019-03-26T05:39:59.863Z,18.33
2019-03-26T05:45:00.973Z,18.41
2019-03-26T05:50:01.191Z,18.27
2019-03-26T05:55:02.367Z,18.17
2019-03-26T06:00:02.589Z,18.23
2019-03-26T06:05:03.723Z,18.25
2019-03-26T06:10:03.930Z,18.18
2019-03-26T06:15:04.548Z,18.32
2019-03-26T06:20:06.520Z,18.30
2019-03-26T06:25:07.725Z,18.29
2019-03-26T06:30:08.049Z,18.29
2019-03-26T06:35:10.347Z,18.30
2019-03-26T06:40:13.793Z,18.37
2019-03-26T06:45:15.803Z,18.36
2019-03-26T06:50:17.617Z,18.14
2019-03-26T06:55:19.598Z,18.15
2019-03-26T07:00:21.966Z,18.27
2019-03-26T07:05:24.023Z,18.35
2019-03-26T07:10:25.764Z,18.36
2019-03-26T07:15:26.800Z,18.42
2019-03-26T07:20:27.786Z,18.42
2019-03-26T07:25:28.958Z,18.47
2019-03-26T07:30:30.233Z,18.55
2019-03-26T07:35:30.566Z,18.45
2019-03-26T07:40:31.820Z,18.57
2019-03-26T07:45:33.406Z,18.51
2019-03-26T07:50:34.538Z,18.58
2019-03-26T07:55:35.673Z,18.70
2019-03-26T08:00:36.914Z,18.67
2019-03-26T08:05:38.085Z,18.80
2019-03-26T08:10:39.325Z,18.87
2019-03-26T08:15:40.530Z,18.82
2019-03-26T08:20:41.568Z,18.88
2019-03-26T08:25:42.725Z,18.82
2019-03-26T08:30:43.929Z,18.90
2019-03-26T08:35:44.921Z,18.84
2019-03-26T08:40:46.016Z,18.88
2019-03-26T08:45:47.169Z,18.87
2019-03-26T08:50:48.271Z,18.88
2019-03-26T08:55:49.359Z,19.08
2019-03-26T09:00:50.498Z,18.99
2019-03-26T09:05:51.594Z,19.21
2019-03-26T09:10:52.745Z,19.25
2019-03-26T09:15:53.898Z,19.18
2019-03-26T09:20:54.975Z,19.22
2019-03-26T09:25:56.109Z,19.22
2019-03-26T09:30:57.271Z,19.32
2019-03-26T09:35:58.291Z,19.37
2019-03-26T09:40:59.461Z,19.33
2019-03-26T09:46:01.645Z,19.47
2019-03-26T09:51:02.759Z,19.40
2019-03-26T09:56:02.884Z,19.32
2019-03-26T10:01:04.048Z,19.28
2019-03-26T10:06:04.276Z,19.28
2019-03-26T10:11:05.413Z,19.40
2019-03-26T10:16:05.521Z,19.73
2019-03-26T10:21:06.585Z,19.81
2019-03-26T10:26:06.723Z,19.95
2019-03-26T10:31:07.794Z,20.23
2019-03-26T10:36:07.903Z,20.50
2019-03-26T10:41:09.067Z,20.76
2019-03-26T10:46:09.250Z,21.17
2019-03-26T10:51:10.269Z,21.46
2019-03-26T10:56:10.433Z,21.62
2019-03-26T11:01:11.551Z,21.75
2019-03-26T11:06:11.707Z,21.72
2019-03-26T11:11:12.780Z,21.75
2019-03-26T11:16:12.900Z,21.84
2019-03-26T11:21:14.053Z,21.80
2019-03-26T11:26:14.220Z,21.79
2019-03-26T11:31:15.399Z,22.06
2019-03-26T11:36:15.639Z,22.31
2019-03-26T11:41:16.706Z,22.58
2019-03-26T11:46:16.802Z,23.01
2019-03-26T11:51:17.948Z,22.91
2019-03-26T11:56:18.102Z,22.75
2019-03-26T12:01:19.221Z,22.94
2019-03-26T12:06:19.326Z,23.05
2019-03-26T12:11:20.485Z,22.80
2019-03-26T12:16:20.604Z,22.82
2019-03-26T12:21:21.895Z,22.76
2019-03-26T12:26:22.000Z,22.72
2019-03-26T12:31:23.081Z,23.46
2019-03-26T12:36:23.222Z,23.84
2019-03-26T12:41:24.322Z,24.58
2019-03-26T12:46:24.446Z,25.39
2019-03-26T12:51:24.831Z,25.67
2019-03-26T12:56:25.147Z,25.57
2019-03-26T13:01:26.140Z,25.62
2019-03-26T13:06:26.286Z,25.57
2019-03-26T13:11:27.384Z,24.98
2019-03-26T13:16:27.510Z,24.58
2019-03-26T13:21:28.747Z,24.37
2019-03-26T13:26:28.859Z,24.22
2019-03-26T13:31:30.007Z,23.93
2019-03-26T13:36:30.215Z,23.83
2019-03-26T13:41:31.280Z,23.73
2019-03-26T13:46:31.507Z,23.95
2019-03-26T13:51:32.506Z,25.80
2019-03-26T13:56:32.694Z,24.69
2019-03-26T14:01:33.895Z,24.39
2019-03-26T14:06:34.020Z,24.30
2019-03-26T14:11:35.149Z,24.43
2019-03-26T14:16:35.356Z,24.40
2019-03-26T14:21:36.349Z,24.39
2019-03-26T14:26:36.457Z,24.20
2019-03-26T14:31:37.582Z,24.28
2019-03-26T14:36:37.818Z,24.18
2019-03-26T14:41:38.907Z,24.06
2019-03-26T14:46:40.334Z,24.06
2019-03-26T14:51:41.126Z,24.27
2019-03-26T14:56:41.263Z,24.61
2019-03-26T15:01:42.362Z,24.45
2019-03-26T15:06:42.538Z,24.20
2019-03-26T15:11:42.875Z,24.09
2019-03-26T15:16:43.198Z,24.05
2019-03-26T15:21:44.798Z,24.22
2019-03-26T15:26:44.591Z,24.21
2019-03-26T15:31:45.685Z,24.10
2019-03-26T15:36:45.745Z,24.06
2019-03-26T15:41:46.877Z,24.00
2019-03-26T15:46:47.046Z,23.98
2019-03-26T15:51:48.209Z,24.00
2019-03-26T15:56:48.444Z,23.83
2019-03-26T16:01:49.536Z,23.83
2019-03-26T16:06:49.700Z,23.88
2019-03-26T16:11:50.776Z,23.76
2019-03-26T16:16:50.998Z,23.57
2019-03-26T16:21:52.100Z,23.46
2019-03-26T16:26:52.319Z,23.48
2019-03-26T16:31:53.290Z,23.27
2019-03-26T16:36:59.648Z,23.23
2019-03-26T16:42:00.501Z,23.20
2019-03-26T16:47:00.609Z,23.07
2019-03-26T16:52:01.738Z,23.05
2019-03-26T16:57:01.889Z,22.91
2019-03-26T17:02:03.039Z,22.86
2019-03-26T17:07:03.106Z,22.79
2019-03-26T17:12:04.776Z,22.75
2019-03-26T17:17:05.376Z,22.70
2019-03-26T17:22:06.495Z,22.62
2019-03-26T17:27:06.673Z,22.61
2019-03-26T17:32:07.826Z,22.65
2019-03-26T17:37:08.175Z,22.52
2019-03-26T17:42:17.193Z,22.47
2019-03-26T17:47:15.341Z,22.49
2019-03-26T17:52:16.638Z,22.39
2019-03-26T17:57:16.796Z,22.47
2019-03-26T18:02:17.952Z,22.51
2019-03-26T18:07:18.055Z,22.43
2019-03-26T18:12:30.201Z,22.35
2019-03-26T18:17:24.341Z,22.40
2019-03-26T18:22:25.434Z,22.51
2019-03-26T18:27:25.458Z,22.51
2019-03-26T18:32:26.716Z,22.43
2019-03-26T18:37:26.916Z,22.43
2019-03-26T18:42:27.990Z,22.47
2019-03-26T18:47:28.073Z,22.46
2019-03-26T18:52:29.259Z,22.42
2019-03-26T18:57:30.336Z,22.46
2019-03-26T19:02:31.451Z,22.49
2019-03-26T19:07:31.569Z,22.46
2019-03-26T19:12:36.071Z,22.47
2019-03-26T19:17:37.318Z,22.49
2019-03-26T19:22:38.198Z,22.43
2019-03-26T19:27:39.559Z,22.46
2019-03-26T19:32:40.449Z,22.51
2019-03-26T19:37:40.572Z,22.60
2019-03-26T19:42:41.674Z,22.67
2019-03-26T19:47:41.848Z,22.73
2019-03-26T19:52:42.894Z,22.77
2019-03-26T19:57:45.392Z,22.82
2019-03-26T20:02:46.110Z,22.85
2019-03-26T20:07:47.415Z,22.88
2019-03-26T20:12:48.355Z,22.82
2019-03-26T20:17:48.463Z,22.72
2019-03-26T20:22:49.563Z,22.65
2019-03-26T20:27:49.647Z,22.75
2019-03-26T20:32:50.722Z,22.54
2019-03-26T20:37:50.833Z,22.46
2019-03-26T20:42:51.974Z,22.40
2019-03-26T20:47:52.209Z,22.30
2019-03-26T20:52:53.298Z,22.21
2019-03-26T20:57:54.639Z,22.09
2019-03-26T21:02:55.525Z,22.05
2019-03-26T21:07:55.886Z,21.92
2019-03-26T21:12:57.017Z,21.74
2019-03-26T21:17:57.151Z,21.67
2019-03-26T21:22:58.290Z,21.65
2019-03-26T21:27:58.391Z,21.58
2019-03-26T21:32:59.486Z,21.53
2019-03-26T21:37:59.674Z,21.47
2019-03-26T21:43:00.891Z,21.43
2019-03-26T21:48:00.896Z,21.19
2019-03-26T21:53:02.041Z,21.28
2019-03-26T21:58:02.221Z,21.25
2019-03-26T22:03:02.691Z,21.24
2019-03-26T22:08:02.916Z,21.07
2019-03-26T22:13:03.966Z,21.01
2019-03-26T22:18:04.105Z,20.94
2019-03-26T22:23:05.407Z,20.99
2019-03-26T22:28:05.417Z,20.79
2019-03-26T22:33:06.517Z,20.69
2019-03-26T22:38:06.574Z,20.55
2019-03-26T22:43:07.795Z,20.54
2019-03-26T22:48:07.999Z,20.43
2019-03-26T22:53:09.134Z,20.33
2019-03-26T22:58:09.218Z,20.33
2019-03-26T23:03:10.398Z,20.24
2019-03-26T23:08:10.420Z,20.18
2019-03-26T23:13:11.621Z,20.11
2019-03-26T23:18:11.870Z,20.11
2019-03-26T23:23:12.909Z,20.11
2019-03-26T23:28:13.195Z,20.08
2019-03-26T23:33:14.343Z,19.94
2019-03-26T23:38:14.488Z,19.95
2019-03-26T23:43:15.785Z,19.84
2019-03-26T23:48:15.922Z,19.91
2019-03-26T23:53:17.065Z,19.81
2019-03-26T23:58:17.060Z,19.86
